createdAt,value
2017-09-22T08:09:03.951Z,16.80
2017-09-22T08:11:32.391Z,14.30
2017-09-22T08:27:06.444Z,17.58
2017-09-22T08:29:38.387Z,16.30
2017-09-22T08:32:09.898Z,15.50
2017-09-22T08:39:54.197Z,16.87
2017-09-22T08:42:21.576Z,17.52
2017-09-22T08:47:26.042Z,15.18
2017-09-22T08:49:54.646Z,15.15
2017-09-22T08:52:22.425Z,16.40
2017-09-22T08:54:51.127Z,14.93
2017-09-22T08:59:51.396Z,18.25
2017-09-22T09:02:25.117Z,16.40
2017-09-22T09:04:52.953Z,15.93
2017-09-22T09:07:23.208Z,15.52
2017-09-22T09:09:52.434Z,15.13
2017-09-22T09:12:20.548Z,17.17
2017-09-22T09:14:47.513Z,15.48
2017-09-22T09:17:16.690Z,16.45
2017-09-22T09:19:44.426Z,15.25
2017-09-22T09:22:11.474Z,15.95
2017-09-22T09:24:39.343Z,16.75
2017-09-22T09:27:06.394Z,16.15
2017-09-22T09:29:33.367Z,14.65
2017-09-22T09:34:33.123Z,17.75
2017-09-22T09:37:00.304Z,17.70
2017-09-22T09:39:28.187Z,15.98
2017-09-22T09:41:55.598Z,19.10
2017-09-22T09:44:22.516Z,17.40
2017-09-22T09:46:50.499Z,18.70
2017-09-22T09:49:18.040Z,17.23
2017-09-22T09:51:46.161Z,17.87
2017-09-22T09:54:13.275Z,21.55
2017-09-22T09:56:41.580Z,21.55
2017-09-22T09:59:12.480Z,20.98
2017-09-22T10:01:42.010Z,19.80
2017-09-22T10:04:09.122Z,20.42
2017-09-22T10:06:37.111Z,21.42
2017-09-22T10:09:04.155Z,22.17
2017-09-22T10:11:31.344Z,19.25
2017-09-22T10:13:58.671Z,21.35
2017-09-22T10:16:26.192Z,20.27
2017-09-22T10:18:53.350Z,18.70
2017-09-22T10:21:21.728Z,20.27
2017-09-22T10:23:48.651Z,20.67
2017-09-22T10:28:54.362Z,18.65
2017-09-22T10:31:21.695Z,15.27
2017-09-22T10:33:49.493Z,18.30
2017-09-22T10:36:17.113Z,15.98
2017-09-22T10:38:48.079Z,17.05
2017-09-22T10:41:15.270Z,17.23
2017-09-22T10:43:42.157Z,15.13
2017-09-22T10:46:10.032Z,16.67
2017-09-22T10:48:37.149Z,16.33
2017-09-22T10:51:04.514Z,16.85
2017-09-22T10:53:31.319Z,17.73
2017-09-22T10:55:58.546Z,18.35
2017-09-22T10:58:27.094Z,18.30
2017-09-22T11:00:54.396Z,17.20
2017-09-22T11:03:21.280Z,16.10
2017-09-22T11:05:49.368Z,17.62
2017-09-22T11:08:17.225Z,17.23
2017-09-22T11:10:44.415Z,14.60
2017-09-22T11:13:11.546Z,16.27
2017-09-22T11:15:39.333Z,15.85
2017-09-22T11:18:06.426Z,13.52
2017-09-22T11:20:34.212Z,13.52
2017-09-22T11:23:02.020Z,15.80
2017-09-22T11:25:29.708Z,11.77
2017-09-22T11:27:56.863Z,10.27
2017-09-22T11:30:24.564Z,10.90
2017-09-22T11:32:51.674Z,11.27
2017-09-22T11:35:19.353Z,18.55
2017-09-22T11:37:46.421Z,12.88
2017-09-22T11:40:13.610Z,11.70
2017-09-22T11:42:41.736Z,15.32
2017-09-22T11:45:08.978Z,13.15
2017-09-22T11:47:35.743Z,12.07
2017-09-22T11:50:02.909Z,12.43
2017-09-22T11:53:03.715Z,10.50
2017-09-22T11:55:31.560Z,11.47
2017-09-22T11:57:58.400Z,13.63
2017-09-22T12:00:25.217Z,11.02
2017-09-22T12:02:52.143Z,11.70
2017-09-22T12:05:19.195Z,10.50
2017-09-22T12:07:46.333Z,9.40
2017-09-22T12:10:13.283Z,8.43
2017-09-22T12:12:40.360Z,8.40
2017-09-22T12:15:07.519Z,10.15
2017-09-22T12:17:35.238Z,9.50
2017-09-22T12:20:02.296Z,10.30
2017-09-22T12:22:29.457Z,11.37
2017-09-22T12:24:57.163Z,11.23
2017-09-22T12:27:23.930Z,14.37
2017-09-22T12:29:51.094Z,16.27
2017-09-22T23:16:52.372Z,41.90
2017-09-22T23:19:20.331Z,42.80
2017-09-22T23:21:47.491Z,42.62
2017-09-22T23:24:16.002Z,42.70
2017-09-22T23:26:44.140Z,45.42
2017-09-22T23:29:12.716Z,51.00
2017-09-22T23:31:40.500Z,51.72
2017-09-22T23:34:09.643Z,53.45
2017-09-22T23:36:37.342Z,55.72
2017-09-22T23:39:04.486Z,51.78
2017-09-22T23:41:32.926Z,55.28
2017-09-22T23:43:59.923Z,58.38
2017-09-22T23:46:29.926Z,51.37
2017-09-22T23:48:57.316Z,53.13
2017-09-22T23:51:24.551Z,55.63
2017-09-22T23:53:53.087Z,59.90
2017-09-22T23:56:20.582Z,53.47
2017-09-22T23:58:48.355Z,51.40
